TFM - Tactical Decision Aid (Experimental) INFO Settings
ID: Runway Winds: CIG/VIS Threshold: METAR Board:

KGLH - Greenville-Mid Delta Rgnl

Updated at: 1935 UTC 19 Jul 2018
Latest TAF at: 1731 UTC 19 Jul 2018

TAF Board

Time1853Z19/20Z19/21Z19/22Z19/23Z20/00Z20/01Z20/02Z20/03Z20/04Z20/05Z20/06Z20/07Z20/08Z
TypeOBSPRVLPRVLPRVLPRVLPRVLPRVLPRVLPRVLPRVLPRVLPRVLPRVLPRVL
VIS10>6>6>6>6>6>6>6>666666
CIG----------------------------
CoverFEWSCTSCTSCTSCTSCTSCTSCTSCTSCTSCTSCTSCTSCT
FltCatVFRVFRVFRVFRVFRVFRVFRVFRVFRVFRVFRVFRVFRVFR
WX----------VCTSVCTSVCTSVCTSBRBRBRBRBR
WDir250210210210210170170170170170170170170170
WSpd65555555533333
WGst----------------------------
TAF
KGLH 191731Z 1918/2018 21005KT P6SM FEW050 SCT250
  FM200000 17005KT P6SM VCTS SCT050CB
  FM200400 17003KT 6SM BR SCT250
  FM201400 22005KT P6SM FEW040 SCT250


METAR Board

Time 19/08Z 19/09Z 19/10Z 19/11Z 19/12Z 19/13Z 19/14Z 19/15Z 19/16Z 19/17Z 19/18Z 19/19Z
Temp74 75 74 74 74 76 78 81 83 91 91 93
Dewpt72 73 71 72 72 74 74 75 76 75 75 73
Altim29.91 29.91 29.91 29.92 29.94 29.94 29.94 29.93 29.92 29.90 29.90 29.89
VIS10 10 9 10 10 10 10 10 10 10 10 10
CIG120 110 -- 41 -- -- -- -- -- -- -- --
CoverOVCOVCSCTBKNFEWSCTCLRSCTCLRCLRSCTFEW
FltCatVFRVFRVFRVFRVFRVFRVFRVFRVFRVFRVFRVFR
WX-RA----------------------
WDir0001201501701701601702200250
WSpd0 0 0 4 3 4 6 7 6 7 5 6
WGst-- -- -- -- -- -- -- -- -- -- -- --
METAR
KGLH 190753Z AUTO 00000KT 10SM -RA SCT037 OVC120 23/22 A2991 RMK AO2 RAB37 SLP133 P0000 T02330222
KGLH 190853Z AUTO 00000KT 10SM OVC110 24/23 A2991 RMK AO2 RAE18 SLP132 P0000 60000 T02390228 56004
KGLH 190953Z AUTO 00000KT 9SM SCT120 23/22 A2991 RMK AO2 SLP133 T02330217
KGLH 191053Z AUTO 12004KT 10SM BKN041 BKN110 23/22 A2992 RMK AO2 SLP137 T02330222
KGLH 191153Z 15003KT 10SM FEW045 23/22 A2994 RMK AO2 SLP142 60000 70001 T02330222 10239 20233 53009
KGLH 191253Z 17004KT 10SM SCT070 24/23 A2994 RMK AO2 SLP143 T02440233
KGLH 191353Z 17006KT 10SM CLR 26/23 A2994 RMK AO2 SLP145 T02560233
KGLH 191453Z 16007KT 10SM FEW065 SCT110 27/24 A2993 RMK AO2 SLP140 T02720239 58002
KGLH 191553Z 17006KT 10SM CLR 28/24 A2992 RMK AO2 SLP135 T02830244
KGLH 191653Z 22007KT 10SM CLR 33/24 A2990 RMK AO2 SLP130 T03280239
KGLH 191753Z VRB05KT 10SM SCT029 33/24 A2990 RMK AO2 SLP128 T03280239 10333 20233 56010
KGLH 191853Z 25006KT 10SM FEW032 34/23 A2989 RMK AO2 SLP125 T03390228

TAF/METAR Board Legend

Potential Impact
  None Marginal Slight Moderate High
Visibility (sm) >5 3≤X≤5 2≤X<3 0.5≤X<2 <0.5
Ceiling (100 ft) >30 10≤X≤30 6≤X<10 2≤X<6 <2
Wind Speed (kt) <10 10≤X<20 20≤X<30 ≥30
Wind Gust (kt) <15 15≤X<25 25≤X<35 ≥35
Weather No Wx Reported VCTS -TS,-FZRA TS,FZRA +TS,+FZRA




Page loaded:  19:35 UTC  |   12:35 PM Pacific  |   01:35 PM Mountain  |   02:35 PM Central  |   03:35 PM Eastern

 

ADVISORIES

FORECASTS

FORECASTS

OBSERVATIONS

USER TOOLS

ABOUT US